createdAt,value
2023-04-23T00:01:17.783Z,5.68
2023-04-23T00:03:45.411Z,5.32
2023-04-23T00:06:13.106Z,5.38
2023-04-23T00:08:41.374Z,4.97
2023-04-23T00:11:09.188Z,5.40
2023-04-23T00:13:36.769Z,4.85
2023-04-23T00:16:04.367Z,5.15
2023-04-23T00:18:31.645Z,5.07
2023-04-23T00:20:59.103Z,5.20
2023-04-23T00:23:26.778Z,5.18
2023-04-23T00:25:54.041Z,5.10
2023-04-23T00:28:22.381Z,5.10
2023-04-23T00:30:49.655Z,5.25
2023-04-23T00:33:16.878Z,4.83
2023-04-23T00:35:44.127Z,5.13
2023-04-23T00:38:11.423Z,4.63
2023-04-23T00:40:38.648Z,4.40
2023-04-23T00:43:05.914Z,5.23
2023-04-23T00:45:33.193Z,5.40
2023-04-23T00:48:00.572Z,4.70
2023-04-23T00:50:27.957Z,4.60
2023-04-23T00:52:55.241Z,4.70
2023-04-23T00:55:22.583Z,4.90
2023-04-23T00:57:49.999Z,5.20
2023-04-23T01:00:17.941Z,4.38
2023-04-23T01:02:46.007Z,5.07
2023-04-23T01:07:40.766Z,4.47
2023-04-23T01:10:08.424Z,4.43
2023-04-23T01:12:35.641Z,4.75
2023-04-23T01:15:03.928Z,4.80
2023-04-23T01:17:32.171Z,4.53
2023-04-23T01:19:59.471Z,4.40
2023-04-23T01:22:26.975Z,4.40
2023-04-23T01:24:54.727Z,4.65
2023-04-23T01:27:25.025Z,4.50
2023-04-23T01:29:55.345Z,4.25
2023-04-23T01:32:22.685Z,4.47
2023-04-23T01:34:50.082Z,4.30
2023-04-23T01:37:17.773Z,4.00
2023-04-23T01:39:45.041Z,4.40
2023-04-23T01:42:12.274Z,4.15
2023-04-23T01:44:39.803Z,4.27
2023-04-23T01:47:07.369Z,3.97
2023-04-23T01:49:34.727Z,4.40
2023-04-23T01:52:04.279Z,3.75
2023-04-23T01:54:31.500Z,4.25
2023-04-23T01:56:59.016Z,4.25
2023-04-23T01:59:26.336Z,4.00
2023-04-23T02:01:53.754Z,3.83
2023-04-23T02:04:21.306Z,3.65
2023-04-23T02:06:50.127Z,3.95
2023-04-23T02:09:17.664Z,4.07
2023-04-23T02:11:44.910Z,4.03
2023-04-23T02:14:12.418Z,4.13
2023-04-23T02:16:39.882Z,3.92
2023-04-23T02:19:07.155Z,3.72
2023-04-23T02:21:34.505Z,3.90
2023-04-23T02:24:01.736Z,4.03
2023-04-23T02:26:29.218Z,3.87
2023-04-23T02:28:56.511Z,4.00
2023-04-23T02:31:24.034Z,3.73
2023-04-23T02:33:51.345Z,3.75
2023-04-23T02:36:18.610Z,3.97
2023-04-23T02:38:47.628Z,3.70
2023-04-23T02:41:14.850Z,4.13
2023-04-23T02:43:42.054Z,3.65
2023-04-23T02:46:09.604Z,3.97
2023-04-23T02:48:40.933Z,3.70
2023-04-23T02:51:11.641Z,3.50
2023-04-23T02:53:38.865Z,4.25
2023-04-23T02:56:07.257Z,3.35
2023-04-23T02:58:34.614Z,3.60
2023-04-23T03:01:02.424Z,4.00
2023-04-23T03:03:32.249Z,3.88
2023-04-23T03:06:00.788Z,3.72
2023-04-23T03:10:55.348Z,3.85
2023-04-23T03:13:22.545Z,3.80
2023-04-23T03:15:49.981Z,3.85
2023-04-23T03:18:17.197Z,4.22
2023-04-23T03:20:44.463Z,3.80
2023-04-23T03:23:11.690Z,3.90
2023-04-23T03:25:41.145Z,3.40
2023-04-23T03:28:08.334Z,3.85
2023-04-23T03:30:38.097Z,3.70
2023-04-23T03:33:05.349Z,3.42
2023-04-23T03:35:32.617Z,3.67
2023-04-23T03:37:59.886Z,3.33
2023-04-23T03:40:27.135Z,3.60
2023-04-23T03:42:54.350Z,3.37
2023-04-23T03:45:22.059Z,3.67
2023-04-23T03:47:49.300Z,3.60
2023-04-23T03:50:17.552Z,3.60
2023-04-23T03:52:44.871Z,3.40
2023-04-23T03:55:12.367Z,3.60
2023-04-23T03:57:39.592Z,3.45
2023-04-23T04:00:13.783Z,3.73
2023-04-23T04:02:41.288Z,3.53
2023-04-23T04:05:11.278Z,3.50
2023-04-23T04:07:38.923Z,3.30
2023-04-23T04:10:06.910Z,3.42
2023-04-23T04:12:34.113Z,3.67
2023-04-23T04:15:03.016Z,3.27
2023-04-23T04:17:30.296Z,3.22
2023-04-23T04:19:57.560Z,3.50
2023-04-23T04:22:24.786Z,3.33
2023-04-23T04:24:52.828Z,3.42
2023-04-23T04:27:20.764Z,3.30
2023-04-23T04:29:48.809Z,3.25
2023-04-23T04:32:16.264Z,3.25
2023-04-23T04:34:43.802Z,3.28
2023-04-23T04:37:11.568Z,3.00
2023-04-23T04:39:38.905Z,3.38
2023-04-23T04:42:07.373Z,3.53
2023-04-23T04:44:37.727Z,3.13
2023-04-23T04:47:05.668Z,3.35
2023-04-23T04:49:32.966Z,3.33
2023-04-23T04:52:00.650Z,3.33
2023-04-23T04:54:27.888Z,3.42
2023-04-23T04:56:55.141Z,3.47
2023-04-23T04:59:22.354Z,3.17
2023-04-23T05:01:49.663Z,3.65
2023-04-23T05:04:17.304Z,3.43
2023-04-23T05:06:44.631Z,3.33
2023-04-23T05:09:12.397Z,3.30
2023-04-23T05:11:41.260Z,3.20
2023-04-23T05:14:08.528Z,3.30
2023-04-23T05:16:35.995Z,3.10
2023-04-23T05:19:03.361Z,3.42
2023-04-23T05:21:31.603Z,3.40
2023-04-23T05:23:58.859Z,2.83
2023-04-23T05:26:26.141Z,3.20
2023-04-23T05:28:53.427Z,2.70
2023-04-23T05:31:22.987Z,3.03
2023-04-23T05:33:50.925Z,3.10
2023-04-23T05:36:18.757Z,3.08
2023-04-23T05:38:48.509Z,3.25
2023-04-23T05:41:16.059Z,3.08
2023-04-23T05:46:10.528Z,3.00
2023-04-23T05:48:37.793Z,3.00
2023-04-23T05:51:05.486Z,2.83
2023-04-23T05:53:32.790Z,3.05
2023-04-23T05:56:00.155Z,3.33
2023-04-23T05:58:27.351Z,2.92
2023-04-23T06:00:54.818Z,3.15
2023-04-23T06:03:22.264Z,3.22
2023-04-23T06:05:50.099Z,3.10
2023-04-23T06:08:17.472Z,3.22
2023-04-23T06:10:44.733Z,3.10
2023-04-23T06:13:12.222Z,3.50
2023-04-23T06:15:39.513Z,3.15
2023-04-23T06:18:06.964Z,3.97
2023-04-23T06:20:34.353Z,3.30
2023-04-23T06:23:02.829Z,3.27
2023-04-23T06:25:30.200Z,3.00
2023-04-23T06:27:58.355Z,3.60
2023-04-23T06:32:53.092Z,5.37
2023-04-23T06:35:20.664Z,5.40
2023-04-23T06:37:47.894Z,5.70
2023-04-23T06:40:15.835Z,5.23
2023-04-23T06:42:43.310Z,5.28
2023-04-23T06:45:10.794Z,5.07
2023-04-23T06:47:38.032Z,4.72
2023-04-23T06:50:06.015Z,4.70
2023-04-23T06:52:33.316Z,4.57
2023-04-23T06:55:00.660Z,4.33
2023-04-23T06:57:28.735Z,4.17
2023-04-23T07:02:23.124Z,4.30
2023-04-23T07:04:50.441Z,3.50
2023-04-23T07:07:18.058Z,4.00
2023-04-23T07:09:45.289Z,4.25
2023-04-23T07:12:12.577Z,3.38
2023-04-23T07:14:40.054Z,3.93
2023-04-23T07:17:07.528Z,3.47
2023-04-23T07:19:34.894Z,3.30
2023-04-23T07:22:02.139Z,3.70
2023-04-23T07:24:29.502Z,3.03
2023-04-23T07:26:56.746Z,3.55
2023-04-23T07:29:23.977Z,3.20
2023-04-23T07:31:51.323Z,3.20
2023-04-23T07:34:18.610Z,3.17
2023-04-23T07:36:45.993Z,3.33
2023-04-23T07:39:13.415Z,2.72
2023-04-23T07:41:40.679Z,3.05
2023-04-23T07:44:07.964Z,2.60
2023-04-23T07:46:35.424Z,2.80
2023-04-23T07:49:02.668Z,2.83
2023-04-23T07:51:29.953Z,3.40
2023-04-23T07:53:58.294Z,2.50
2023-04-23T07:56:25.755Z,2.80
2023-04-23T07:58:54.189Z,3.08
2023-04-23T08:01:21.819Z,2.67
2023-04-23T08:03:49.472Z,2.85
2023-04-23T08:06:18.247Z,2.60
2023-04-23T08:08:45.848Z,2.63
2023-04-23T08:11:13.131Z,3.05
2023-04-23T08:13:40.329Z,2.50
2023-04-23T08:16:07.589Z,2.87
2023-04-23T08:18:35.307Z,2.63
2023-04-23T08:21:02.601Z,2.50
2023-04-23T08:23:29.838Z,2.53
2023-04-23T08:25:57.054Z,2.58
2023-04-23T08:28:27.977Z,2.72
2023-04-23T08:30:55.273Z,2.47
2023-04-23T08:33:25.516Z,2.60
2023-04-23T08:35:52.747Z,2.72
2023-04-23T08:38:20.002Z,2.30
2023-04-23T08:40:50.669Z,2.60
2023-04-23T08:43:19.874Z,2.40
2023-04-23T08:45:48.505Z,2.70
2023-04-23T08:48:16.190Z,2.60
2023-04-23T08:50:44.203Z,2.40
2023-04-23T08:53:11.733Z,2.25
2023-04-23T08:55:39.386Z,2.60
2023-04-23T08:58:07.491Z,2.25
2023-04-23T09:00:35.509Z,2.40
2023-04-23T09:03:03.068Z,2.22
2023-04-23T09:05:31.302Z,2.40
2023-04-23T09:07:59.914Z,2.33
2023-04-23T09:10:27.306Z,2.30
2023-04-23T09:12:54.652Z,2.60
2023-04-23T09:15:22.404Z,2.60
2023-04-23T09:17:50.207Z,2.60
2023-04-23T09:20:17.742Z,2.30
2023-04-23T09:22:49.660Z,2.78
2023-04-23T09:25:18.275Z,2.60
2023-04-23T09:27:46.380Z,2.03
2023-04-23T09:30:13.929Z,2.30
2023-04-23T09:32:43.332Z,2.33
2023-04-23T09:35:11.830Z,2.20
2023-04-23T09:37:42.408Z,2.53
2023-04-23T09:40:10.621Z,2.33
2023-04-23T09:45:08.977Z,2.30
2023-04-23T09:47:38.844Z,2.22
2023-04-23T09:50:07.402Z,2.22
2023-04-23T09:52:34.959Z,2.33
2023-04-23T09:55:02.776Z,2.10
2023-04-23T09:57:30.045Z,2.40
2023-04-23T10:00:07.214Z,2.20
2023-04-23T10:02:40.092Z,2.10
2023-04-23T10:05:24.750Z,2.25
2023-04-23T10:07:53.569Z,2.08
2023-04-23T10:10:20.993Z,2.40
2023-04-23T10:12:54.925Z,2.30
2023-04-23T10:15:23.964Z,2.10
2023-04-23T10:17:51.703Z,2.00
2023-04-23T10:20:21.340Z,2.40
2023-04-23T10:22:49.126Z,2.10
2023-04-23T10:25:16.435Z,2.22
2023-04-23T10:27:54.052Z,2.20
2023-04-23T10:30:22.836Z,2.40
2023-04-23T10:32:50.957Z,2.50
2023-04-23T10:35:18.427Z,2.20
2023-04-23T10:37:46.936Z,2.20
2023-04-23T10:40:15.420Z,2.00
2023-04-23T10:42:44.407Z,2.20
2023-04-23T10:47:49.205Z,2.10
2023-04-23T10:50:24.230Z,2.13
2023-04-23T10:52:53.505Z,1.90
2023-04-23T10:55:22.136Z,1.90
2023-04-23T10:58:04.242Z,2.15
2023-04-23T11:00:43.461Z,2.15
2023-04-23T11:03:30.374Z,1.92
2023-04-23T11:06:02.162Z,2.00
2023-04-23T11:08:32.272Z,1.80
2023-04-23T11:11:00.480Z,1.95
2023-04-23T11:16:14.073Z,1.90
2023-04-23T11:18:57.433Z,1.90
2023-04-23T11:21:44.589Z,2.03
2023-04-23T11:24:11.786Z,2.17
2023-04-23T11:26:39.833Z,1.83
2023-04-23T11:29:07.853Z,1.67
2023-04-23T11:31:35.634Z,1.80
2023-04-23T11:34:03.149Z,1.67
2023-04-23T11:36:32.494Z,2.00
2023-04-23T11:38:59.909Z,2.00
2023-04-23T11:41:30.129Z,1.90
2023-04-23T11:44:00.730Z,1.67
2023-04-23T11:46:28.335Z,1.80
2023-04-23T11:48:55.595Z,1.85
2023-04-23T11:51:28.953Z,1.77
2023-04-23T11:54:02.861Z,1.80
2023-04-23T11:56:33.346Z,1.98
2023-04-23T11:59:03.579Z,2.00
2023-04-23T12:01:41.306Z,1.88
2023-04-23T12:04:16.119Z,1.95
2023-04-23T12:06:47.058Z,1.65
2023-04-23T12:09:15.222Z,2.15
2023-04-23T12:11:43.156Z,1.70
2023-04-23T12:14:11.158Z,1.70
2023-04-23T12:16:41.463Z,1.83
2023-04-23T12:19:09.918Z,1.83
2023-04-23T12:21:48.238Z,1.83
2023-04-23T12:24:15.995Z,1.60
2023-04-23T12:26:44.440Z,1.95
2023-04-23T12:29:14.315Z,1.70
2023-04-23T12:31:44.554Z,1.88
2023-04-23T12:34:14.697Z,1.80
2023-04-23T12:36:45.368Z,1.80
2023-04-23T12:39:25.064Z,2.00
2023-04-23T12:41:53.185Z,1.83
2023-04-23T12:44:23.319Z,1.65
2023-04-23T12:46:51.778Z,1.90
2023-04-23T12:49:19.038Z,1.73
2023-04-23T12:51:46.348Z,1.80
2023-04-23T12:54:13.568Z,1.93
2023-04-23T12:56:40.911Z,1.77
2023-04-23T12:59:08.360Z,1.73
2023-04-23T13:01:35.658Z,1.77
2023-04-23T13:04:02.978Z,1.70
2023-04-23T13:06:30.289Z,1.50
2023-04-23T13:08:57.672Z,1.50
2023-04-23T13:11:24.986Z,1.50
2023-04-23T13:13:54.684Z,1.80
2023-04-23T13:16:21.961Z,1.55
2023-04-23T13:18:51.540Z,1.70
2023-04-23T13:21:19.195Z,1.65
2023-04-23T13:23:46.528Z,2.05
2023-04-23T13:26:13.890Z,1.60
2023-04-23T13:28:41.136Z,1.90
2023-04-23T13:31:08.716Z,1.50
2023-04-23T13:33:35.938Z,1.58
2023-04-23T13:36:03.582Z,1.73
2023-04-23T13:38:31.246Z,1.63
2023-04-23T13:40:58.556Z,1.88
2023-04-23T13:43:25.809Z,1.60
2023-04-23T13:45:53.758Z,1.50
2023-04-23T13:48:21.103Z,1.42
2023-04-23T13:50:48.396Z,1.53
2023-04-23T13:53:15.800Z,1.70
2023-04-23T13:55:43.068Z,1.63
2023-04-23T13:58:12.254Z,1.70
2023-04-23T14:00:39.662Z,1.60
2023-04-23T14:03:06.947Z,1.50
2023-04-23T14:05:34.282Z,1.40
2023-04-23T14:08:01.651Z,1.58
2023-04-23T14:10:28.903Z,1.70
2023-04-23T14:12:56.260Z,1.42
2023-04-23T14:15:23.848Z,1.33
2023-04-23T14:17:51.142Z,1.50
2023-04-23T14:20:20.131Z,1.37
2023-04-23T14:22:51.791Z,1.67
2023-04-23T14:25:26.659Z,1.58
2023-04-23T14:27:56.363Z,1.45
2023-04-23T14:30:26.258Z,1.52
2023-04-23T14:32:56.305Z,1.58
2023-04-23T14:35:39.547Z,1.70
2023-04-23T14:38:10.333Z,1.60
2023-04-23T14:40:37.582Z,1.50
2023-04-23T14:43:15.149Z,1.47
2023-04-23T14:45:43.291Z,1.42
2023-04-23T14:48:10.784Z,1.47
2023-04-23T14:50:38.056Z,1.48
2023-04-23T14:53:07.490Z,1.60
2023-04-23T14:55:34.858Z,1.60
2023-04-23T14:58:02.160Z,1.50
2023-04-23T15:00:29.392Z,1.53
2023-04-23T15:02:57.456Z,1.60
2023-04-23T15:05:25.272Z,1.42
2023-04-23T15:07:53.354Z,1.38
2023-04-23T15:10:23.232Z,1.50
2023-04-23T15:13:10.958Z,1.70
2023-04-23T15:15:44.349Z,1.45
2023-04-23T15:18:14.185Z,1.58
2023-04-23T15:20:41.677Z,1.58
2023-04-23T15:23:08.972Z,1.60
2023-04-23T15:25:36.953Z,1.60
2023-04-23T15:28:05.637Z,1.55
2023-04-23T15:30:32.881Z,1.45
2023-04-23T15:33:00.266Z,1.48
2023-04-23T15:35:28.053Z,1.75
2023-04-23T15:37:55.539Z,1.70
2023-04-23T15:40:22.823Z,1.48
2023-04-23T15:42:50.513Z,1.60
2023-04-23T15:45:18.547Z,1.77
2023-04-23T15:47:46.980Z,1.67
2023-04-23T15:50:14.318Z,1.53
2023-04-23T15:52:41.901Z,1.53
2023-04-23T15:55:09.455Z,1.77
2023-04-23T15:57:36.720Z,1.60
2023-04-23T16:00:05.669Z,1.73
2023-04-23T16:02:34.628Z,1.70
2023-04-23T16:05:02.242Z,1.95
2023-04-23T16:07:30.037Z,1.50
2023-04-23T16:09:57.338Z,1.90
2023-04-23T16:12:24.557Z,1.63
2023-04-23T16:14:51.888Z,1.83
2023-04-23T16:17:20.002Z,1.63
2023-04-23T16:22:17.595Z,2.00
2023-04-23T16:24:44.814Z,1.88
2023-04-23T16:27:12.726Z,1.80
2023-04-23T16:29:40.699Z,1.83
2023-04-23T16:32:10.593Z,1.60
2023-04-23T16:34:37.859Z,1.70
2023-04-23T16:37:05.321Z,1.73
2023-04-23T16:39:33.251Z,1.55
2023-04-23T16:42:00.510Z,1.55
2023-04-23T16:44:27.777Z,1.60
2023-04-23T16:46:57.959Z,1.75
2023-04-23T16:49:25.510Z,1.80
2023-04-23T16:51:54.065Z,1.40
2023-04-23T16:54:21.806Z,1.60
2023-04-23T16:56:49.046Z,2.08
2023-04-23T16:59:16.549Z,2.00
2023-04-23T17:01:43.836Z,1.63
2023-04-23T17:04:11.598Z,1.30
2023-04-23T17:06:39.129Z,1.73
2023-04-23T17:09:08.691Z,1.70
2023-04-23T17:11:36.478Z,1.40
2023-04-23T17:14:03.719Z,1.80
2023-04-23T17:16:31.101Z,1.90
2023-04-23T17:18:58.588Z,1.60
2023-04-23T17:21:25.966Z,1.73
2023-04-23T17:23:54.111Z,1.70
2023-04-23T17:28:48.472Z,1.85
2023-04-23T17:31:16.314Z,1.60
2023-04-23T17:33:45.389Z,1.50
2023-04-23T17:36:12.744Z,1.60
2023-04-23T17:38:39.969Z,1.50
2023-04-23T17:41:07.305Z,1.58
2023-04-23T17:43:37.715Z,1.90
2023-04-23T17:46:05.063Z,1.58
2023-04-23T17:48:32.379Z,1.40
2023-04-23T17:50:59.666Z,1.60
2023-04-23T17:53:26.965Z,1.57
2023-04-23T17:55:58.635Z,1.70
2023-04-23T17:58:28.753Z,1.50
2023-04-23T18:00:56.248Z,1.52
2023-04-23T18:03:23.912Z,1.60
2023-04-23T18:05:51.645Z,1.70
2023-04-23T18:08:20.903Z,1.55
2023-04-23T18:10:48.262Z,1.40
2023-04-23T18:13:15.824Z,1.50
2023-04-23T18:15:43.457Z,1.40
2023-04-23T18:18:11.018Z,1.85
2023-04-23T18:20:39.017Z,2.05
2023-04-23T18:23:06.872Z,1.90
2023-04-23T18:25:34.126Z,2.10
2023-04-23T18:28:01.360Z,2.10
2023-04-23T18:30:28.824Z,2.58
2023-04-23T18:33:00.867Z,2.90
2023-04-23T18:35:28.264Z,3.05
2023-04-23T18:38:02.656Z,2.90
2023-04-23T18:40:30.080Z,2.58
2023-04-23T18:43:00.136Z,2.93
2023-04-23T18:45:27.444Z,3.28
2023-04-23T18:47:59.420Z,3.37
2023-04-23T18:50:31.477Z,4.00
2023-04-23T18:52:59.636Z,4.55
2023-04-23T18:55:26.900Z,4.18
2023-04-23T18:57:56.030Z,4.90
2023-04-23T19:00:23.388Z,5.72
2023-04-23T19:02:50.745Z,5.93
2023-04-23T19:05:18.083Z,6.13
2023-04-23T19:07:45.375Z,6.10
2023-04-23T19:10:13.075Z,6.20
2023-04-23T19:12:40.465Z,5.53
2023-04-23T19:15:07.970Z,5.63
2023-04-23T19:17:35.689Z,5.65
2023-04-23T19:20:03.867Z,5.47
2023-04-23T19:24:58.210Z,5.20
2023-04-23T19:27:25.555Z,5.73
2023-04-23T19:29:54.449Z,4.90
2023-04-23T19:32:22.199Z,5.18
2023-04-23T19:34:49.412Z,6.03
2023-04-23T19:37:16.725Z,5.97
2023-04-23T19:39:44.173Z,5.87
2023-04-23T19:42:11.972Z,6.05
2023-04-23T19:44:39.205Z,6.05
2023-04-23T19:47:06.600Z,5.25
2023-04-23T19:49:33.814Z,5.53
2023-04-23T19:52:01.942Z,5.82
2023-04-23T19:56:56.289Z,5.20
2023-04-23T19:59:23.892Z,5.40
2023-04-23T20:01:51.781Z,5.07
2023-04-23T20:04:19.104Z,4.90
2023-04-23T20:06:46.845Z,4.90
2023-04-23T20:09:27.717Z,4.85
2023-04-23T20:11:55.028Z,5.05
2023-04-23T20:14:22.391Z,5.30
2023-04-23T20:16:49.849Z,5.10
2023-04-23T20:19:19.163Z,5.10
2023-04-23T20:21:46.522Z,4.97
2023-04-23T20:24:14.641Z,4.67
2023-04-23T20:29:09.325Z,4.72
2023-04-23T20:31:36.822Z,5.05
2023-04-23T20:34:04.103Z,5.28
2023-04-23T20:36:34.218Z,4.88
2023-04-23T20:39:05.290Z,4.80
2023-04-23T20:41:34.523Z,4.32
2023-04-23T20:44:02.053Z,4.45
2023-04-23T20:46:32.389Z,4.45
2023-04-23T20:49:00.997Z,4.95
2023-04-23T20:51:28.718Z,4.28
2023-04-23T20:53:57.667Z,4.65
2023-04-23T20:56:24.982Z,4.30
2023-04-23T20:58:52.260Z,4.20
2023-04-23T21:01:19.828Z,4.30
2023-04-23T21:03:47.287Z,4.43
2023-04-23T21:06:14.620Z,4.30
2023-04-23T21:08:42.850Z,4.70
2023-04-23T21:11:13.739Z,4.47
2023-04-23T21:13:41.475Z,4.47
2023-04-23T21:16:08.786Z,4.00
2023-04-23T21:18:36.063Z,3.90
2023-04-23T21:21:03.349Z,4.10
2023-04-23T21:23:31.275Z,3.77
2023-04-23T21:25:58.570Z,4.05
2023-04-23T21:28:25.823Z,4.07
2023-04-23T21:30:53.853Z,3.80
2023-04-23T21:33:21.957Z,4.03
2023-04-23T21:35:50.855Z,3.63
2023-04-23T21:38:18.586Z,3.90
2023-04-23T21:40:46.841Z,3.78
2023-04-23T21:45:41.369Z,4.20
2023-04-23T21:48:08.799Z,3.70
2023-04-23T21:50:36.268Z,3.90
2023-04-23T21:53:04.162Z,3.70
2023-04-23T21:55:31.929Z,3.67
2023-04-23T21:58:13.837Z,3.85
2023-04-23T22:00:44.748Z,3.65
2023-04-23T22:05:41.318Z,3.22
2023-04-23T22:08:09.620Z,3.50
2023-04-23T22:10:42.869Z,3.85
2023-04-23T22:13:14.347Z,3.78
2023-04-23T22:15:42.213Z,3.70
2023-04-23T22:18:09.492Z,3.72
2023-04-23T22:20:37.633Z,3.40
2023-04-23T22:25:32.009Z,3.22
2023-04-23T22:27:59.247Z,3.60
2023-04-23T22:30:26.539Z,3.40
2023-04-23T22:32:53.855Z,3.50
2023-04-23T22:35:21.127Z,3.30
2023-04-23T22:37:48.395Z,3.38
2023-04-23T22:40:15.757Z,3.20
2023-04-23T22:42:42.985Z,3.20
2023-04-23T22:45:10.378Z,3.35
2023-04-23T22:47:37.771Z,3.80
2023-04-23T22:50:05.563Z,3.07
2023-04-23T22:52:32.795Z,3.00
2023-04-23T22:54:59.995Z,3.25
2023-04-23T22:57:30.654Z,3.50
2023-04-23T22:59:58.089Z,3.10
2023-04-23T23:02:26.718Z,3.20
2023-04-23T23:04:54.093Z,3.30
2023-04-23T23:07:21.312Z,3.30
2023-04-23T23:09:48.569Z,3.08
2023-04-23T23:12:15.817Z,3.10
2023-04-23T23:14:43.281Z,2.85
2023-04-23T23:17:10.519Z,3.15
2023-04-23T23:19:37.742Z,2.60
2023-04-23T23:22:05.023Z,3.00
2023-04-23T23:24:33.245Z,3.20
2023-04-23T23:27:01.417Z,3.25
2023-04-23T23:31:57.335Z,3.03
2023-04-23T23:34:24.582Z,3.17
2023-04-23T23:36:51.884Z,3.08
2023-04-23T23:39:20.107Z,3.10
2023-04-23T23:44:14.618Z,2.83
2023-04-23T23:46:42.024Z,2.75
2023-04-23T23:49:09.376Z,3.35
2023-04-23T23:51:36.661Z,2.97
2023-04-23T23:54:03.871Z,2.72
2023-04-23T23:56:31.086Z,2.72
2023-04-23T23:58:58.329Z,3.17
